• Join FlightAware (Why Join?)
  • Login
  • US Flag 
Rudolph Flight #1: Arrived! 
04:09PM EST


 

Airport Tracker/Info


-or-


 

Live Flight TrackerFlight Track Log ✈ ASQ5291 ✈ 08-Oct-2013 ✈ KATL - KMGM

Flight Track Log - Related Links

Times and Time Zones

All times are in EDT time to prevent confusion due to time zone crossing. See the ASQ5291 flight status page for this flight to view local times or setup timezone preferences in your user account.

Time Position Orientation Groundspeed Altitude Reporting Facility
EDT Latitude Longitude Course Direction KTS MPH feet Rate Location/Type
07:23PM 33.6500 -84.3833 73° East 156 180 2,900  Level Atlanta TRACON
07:24PM 33.6667 -84.3167 73° East 243 280 5,100 2,580 Climbing Atlanta TRACON
07:25PM 33.7333 -84.2833 23° Northeast 282 325 7,900 2,400 Climbing Atlanta TRACON
07:26PM 33.8125 -84.3639 320° Northwest 303 349 11,300 1,860 Climbing Atlanta Center
07:27PM 33.7747 -84.4711 247° West 289 333 13,000 1,380 Climbing Atlanta Center
07:28PM 33.7303 -84.5933 246° West 334 384 14,100 1,080 Climbing Atlanta Center
07:29PM 33.6817 -84.7153 244° Southwest 382 440 15,200 1,560 Climbing Atlanta Center
07:30PM 33.6331 -84.8372 244° Southwest 389 448 17,300 1,380 Climbing Atlanta Center
07:31PM 33.5864 -84.9489 243° Southwest 395 455 18,000 300 Climbing Atlanta Center
07:32PM 33.5375 -85.0681 244° Southwest 395 455 18,000  Level Atlanta Center
07:33PM 33.4925 -85.1847 245° Southwest 395 455 18,000  Level Atlanta Center
07:34PM 33.4103 -85.2756 223° Southwest 395 455 18,000  Level Atlanta Center
07:35PM 33.3258 -85.3614 220° Southwest 400 460 18,000  Level Atlanta Center
07:36PM 33.2500 -85.4397 221° Southwest 406 467 18,000  Level Atlanta Center
07:37PM 33.1675 -85.5203 219° Southwest 406 467 18,000  Level Atlanta Center
07:38PM 33.0872 -85.6058 222° Southwest 401 461 18,000  Level Atlanta Center
07:39PM 33.0025 -85.6883 219° Southwest 401 461 18,000  Level Atlanta Center
07:40PM 32.9200 -85.7711 220° Southwest 396 456 18,000 -960 Level Atlanta Center
07:41PM 32.8414 -85.8633 225° Southwest 396 456 16,100 -2,100 Descending Atlanta Center
07:42PM 32.7669 -85.9631 228° Southwest 404 465 13,900 -2,340 Descending Atlanta Center
07:43PM 32.7008 -86.0531 229° Southwest 388 447 11,500 -1,920 Descending Atlanta Center
07:44PM 32.6431 -86.1308 229° Southwest 352 405 10,100 -1,800 Descending Atlanta Center
07:45PM 32.5939 -86.2058 232° Southwest 317 365 8,000 -1,620 Descending Atlanta Center
07:46PM 32.5467 -86.2764 232° Southwest 293 337 6,900 -1,500 Descending Atlanta Center
07:47PM 32.4972 -86.3464 230° Southwest 286 329 5,100 -1,800 Descending Atlanta Center
07:48PM 32.4481 -86.4092 227° Southwest 274 315 3,300 -1,800 Descending Atlanta Center
07:50PM 32.3392 -86.3979 220° Southwest  Level Estimated
07:57PM 32.3000 -86.3833 220° Southwest  Level FlightAware Approximate
07:58PM 32.3006 -86.3940 220° Southwest  Level Estimated
07:59PM 32.3006 -86.3940 220° Southwest  Level Estimated
08:00PM 32.3006 -86.3940 220° Southwest  Level Estimated